»·PEaware :: N221XG KHWD-KSBP

N221XG :: KHWD-KSBP

FLIGHT INFORMATION

Flight Status: Arrived
Operator: Privately registered:
United States
More flights under this callsign
Pilot: Ryan L. (9775)
Aircraft: BEECH AIRCRAFT SUPER KING AIR 350
(B350)
More flights by this aircraft type
Origin: KHWD Hayward Executive
United States
Destination: KSBP San Luis Co Regl
United States
More flights between these airports :: More routes between these airports
Route: +OSI V25 SNS BSR V27 MQO
File this flight plan on PilotEdge
Remarks:
Altitude:
(Current/Filed)
23,000ft
Speed:
(Current/Filed)
300kts
Departed: 11-May-19 06:11 PM
Arrived: 11-May-19 06:58 PM
Distance/Time
Traveled:
162nm/0:46
Distance/Time
To Go:
Arrived

Flight Plot

Page will automatically refresh every two minutes.

Flight plan parsing failed; only flown route is shown


Map Options




Map Legend


Flown Route
Filed Route
Departure Airport
Arrival Airport
Navaid (VOR, NDB)
Fix

Horizontal Profiles

Position Reports

Time Latitude Longitude Heading Altitude Ground
Speed
11-May-19 17:55 37.659769 -122.116618 61 57ft 0kts
11-May-19 17:56 37.659769 -122.116618 61 57ft 0kts
11-May-19 17:57 37.659769 -122.116618 61 57ft 0kts
11-May-19 17:58 37.659769 -122.116618 61 57ft 0kts
11-May-19 17:59 37.659769 -122.116618 61 57ft 0kts
11-May-19 18:00 37.659769 -122.116618 61 57ft 0kts
11-May-19 18:01 37.659775 -122.116592 62 57ft 0kts
11-May-19 18:02 37.659775 -122.116592 62 57ft 0kts
11-May-19 18:03 37.659790 -122.116556 60 57ft 0kts
11-May-19 18:04 37.659663 -122.116579 235 57ft 0kts
11-May-19 18:05 37.658510 -122.116885 133 57ft 13kts
11-May-19 18:06 37.655836 -122.114084 121 57ft 9kts
11-May-19 18:07 37.654697 -122.112047 175 57ft 0kts
11-May-19 18:08 37.654697 -122.112047 175 57ft 0kts
11-May-19 18:09 37.654168 -122.112355 245 57ft 2kts
11-May-19 18:10 37.655802 -122.116139 299 57ft 73kts
11-May-19 18:11 37.669388 -122.152135 260 1079ft 125kts
11-May-19 18:12 37.637165 -122.173304 206 2281ft 159kts
11-May-19 18:13 37.592815 -122.194483 202 3853ft 175kts
11-May-19 18:14 37.544849 -122.215455 201 5538ft 188kts
11-May-19 18:15 37.494357 -122.237439 200 7243ft 194kts
11-May-19 18:16 37.443347 -122.259629 200 8988ft 195kts
11-May-19 18:17 37.391076 -122.268919 160 10598ft 197kts
11-May-19 18:18 37.339150 -122.248185 159 12314ft 196kts
11-May-19 18:19 37.289623 -122.218787 152 13922ft 199kts
11-May-19 18:20 37.238686 -122.190638 154 15508ft 202kts
11-May-19 18:21 37.186904 -122.162947 154 17101ft 204kts
11-May-19 18:22 37.134038 -122.135031 154 18669ft 206kts
11-May-19 18:23 37.080662 -122.106986 154 20181ft 208kts
11-May-19 18:24 37.027059 -122.078879 154 21688ft 210kts
11-May-19 18:25 36.972876 -122.050508 154 22990ft 218kts
11-May-19 18:26 36.909581 -122.017499 154 23035ft 271kts
11-May-19 18:27 36.835880 -121.979738 154 23019ft 297kts
11-May-19 18:28 36.758129 -121.939376 154 23009ft 303kts
11-May-19 18:29 36.680528 -121.899149 154 23006ft 302kts
11-May-19 18:30 36.602673 -121.858870 154 23012ft 302kts
11-May-19 18:31 36.525123 -121.818835 154 23031ft 302kts
11-May-19 18:32 36.447275 -121.778734 154 23044ft 302kts
11-May-19 18:33 36.369372 -121.738702 154 23044ft 303kts
11-May-19 18:34 36.291342 -121.698667 154 23045ft 303kts
11-May-19 18:35 36.213329 -121.658745 154 23045ft 304kts
11-May-19 18:36 36.135133 -121.618541 152 23043ft 303kts
11-May-19 18:37 36.057900 -121.576446 153 23045ft 304kts
11-May-19 18:38 35.980162 -121.534832 153 23018ft 303kts
11-May-19 18:39 35.903394 -121.493921 153 21484ft 300kts
11-May-19 18:40 35.826144 -121.453210 153 19979ft 302kts
11-May-19 18:41 35.749011 -121.415795 155 18445ft 291kts
11-May-19 18:42 35.675894 -121.378641 154 16909ft 279kts
11-May-19 18:43 35.607240 -121.336856 138 15374ft 269kts
11-May-19 18:44 35.563175 -121.265707 120 13866ft 260kts
11-May-19 18:45 35.521391 -121.193377 124 12368ft 258kts
11-May-19 18:46 35.478321 -121.122837 125 10863ft 258kts
11-May-19 18:47 35.434719 -121.052395 125 9358ft 260kts
11-May-19 18:48 35.393459 -120.986037 125 9023ft 224kts
11-May-19 18:49 35.355889 -120.925710 125 8235ft 229kts
11-May-19 18:50 35.316701 -120.862935 126 6758ft 234kts
11-May-19 18:52 35.277806 -120.800746 126 5241ft 225kts
11-May-19 18:53 35.244848 -120.738317 109 4030ft 202kts
11-May-19 18:54 35.225262 -120.677227 115 2992ft 192kts
11-May-19 18:55 35.199664 -120.628794 126 1926ft 157kts
11-May-19 18:56 35.210114 -120.597882 335 1550ft 118kts
11-May-19 18:57 35.229580 -120.627614 306 378ft 103kts
11-May-19 18:58 35.237776 -120.641034 85 217ft 7kts
11-May-19 18:59 35.237799 -120.640464 85 217ft 0kts

Navigation Log

Ident Type
Flight plan parsing failed, navigation log unavailable